Time;durP1;ratioP1;P1;durP2;ratioP2;P2;SDS_P1;SDS_P2;PMS_P1;PMS_P2;Temp;Humidity;BMP_temperature;BMP_pressure;BME280_temperature;BME280_humidity;BME280_pressure;Samples;Min_cycle;Max_cycle;Signal;HPM_P1;HPM_P2
2022/05/23 00:01:59;;;;;;;;;;;14.40;99.90;;;;;;4968669;28;19929;-80
2022/05/23 00:04:24;;;;;;;;;;;14.20;99.90;;;;;;4973519;28;20530;-78
2022/05/23 00:06:50;;;;;;;;;;;14.40;99.90;;;;;;4973916;28;19932;-79
2022/05/23 00:09:16;;;;;;;;;;;14.30;99.90;;;;;;4976703;28;20553;-79
2022/05/23 00:11:42;;;;;;;;;;;14.30;99.90;;;;;;4964036;28;20268;-78
2022/05/23 00:14:08;;;;;;;;;;;14.30;99.90;;;;;;4962896;28;20011;-79
2022/05/23 00:16:35;;;;;;;;;;;14.30;99.90;;;;;;4997383;28;19925;-78
2022/05/23 00:19:01;;;;;;;;;;;14.30;99.90;;;;;;4993951;28;20554;-78
2022/05/23 00:21:27;;;;;;;;;;;14.10;99.90;;;;;;4996302;28;19925;-78
2022/05/23 00:23:53;;;;;;;;;;;14.20;99.90;;;;;;4994620;28;19936;-78
2022/05/23 00:26:19;;;;;;;;;;;14.20;99.90;;;;;;4941681;28;20040;-78
2022/05/23 00:28:45;;;;;;;;;;;14.00;99.90;;;;;;4963448;28;19926;-78
2022/05/23 00:31:11;;;;;;;;;;;14.00;99.90;;;;;;4966879;28;19933;-79
2022/05/23 00:36:25;;;;;;;;;;;14.10;99.90;;;;;;4973289;28;20016;-79
2022/05/23 00:38:53;;;;;;;;;;;14.20;99.90;;;;;;4973432;28;20048;-79
2022/05/23 00:44:06;;;;;;;;;;;14.10;99.90;;;;;;4971960;28;20005;-79
2022/05/23 00:46:32;;;;;;;;;;;14.10;99.90;;;;;;4972788;28;19931;-79
2022/05/23 00:48:58;;;;;;;;;;;14.00;99.90;;;;;;4959176;28;20438;-79
2022/05/23 00:51:25;;;;;;;;;;;14.00;99.90;;;;;;4984072;28;20024;-80
2022/05/23 00:53:53;;;;;;;;;;;14.00;99.90;;;;;;4979483;28;19988;-80
2022/05/23 00:56:22;;;;;;;;;;;13.80;99.90;;;;;;4966172;28;19978;-80
2022/05/23 00:58:50;;;;;;;;;;;13.80;99.90;;;;;;4978039;28;19926;-79
2022/05/23 01:01:20;;;;;;;;;;;13.80;99.90;;;;;;4973437;28;19937;-79
2022/05/23 01:03:46;;;;;;;;;;;13.80;99.90;;;;;;4977894;28;19949;-79
2022/05/23 01:06:12;;;;;;;;;;;13.80;99.90;;;;;;4946322;28;20461;-79
2022/05/23 01:08:41;;;;;;;;;;;13.80;99.90;;;;;;4974430;28;20636;-79
2022/05/23 01:11:07;;;;;;;;;;;13.80;99.90;;;;;;4958851;28;19929;-79
2022/05/23 01:13:33;;;;;;;;;;;13.80;99.90;;;;;;4977540;28;19980;-79
2022/05/23 01:15:59;;;;;;;;;;;13.70;99.90;;;;;;4978581;28;20044;-79
2022/05/23 01:18:25;;;;;;;;;;;13.70;99.90;;;;;;4944639;28;19921;-79
2022/05/23 01:20:53;;;;;;;;;;;13.90;99.90;;;;;;4981384;28;20010;-80
2022/05/23 01:23:25;;;;;;;;;;;13.80;99.90;;;;;;4976730;28;19964;-80
2022/05/23 01:25:51;;;;;;;;;;;13.80;99.90;;;;;;4982312;28;19986;-80
2022/05/23 01:28:17;;;;;;;;;;;13.90;99.90;;;;;;4982387;28;20446;-79
2022/05/23 01:30:44;;;;;;;;;;;13.90;99.90;;;;;;4983004;28;20353;-79
2022/05/23 01:33:10;;;;;;;;;;;13.90;99.90;;;;;;4980244;28;19925;-79
2022/05/23 01:35:37;;;;;;;;;;;13.90;99.90;;;;;;4981939;28;19977;-79
2022/05/23 01:38:02;;;;;;;;;;;13.90;99.90;;;;;;4954348;28;20570;-79
2022/05/23 01:40:28;;;;;;;;;;;13.80;99.90;;;;;;4971016;28;19937;-79
2022/05/23 01:42:54;;;;;;;;;;;13.70;99.90;;;;;;4964198;28;19932;-79
2022/05/23 01:45:21;;;;;;;;;;;13.80;99.90;;;;;;4976707;28;19922;-79
2022/05/23 01:47:47;;;;;;;;;;;13.80;99.90;;;;;;4972917;28;20024;-79
2022/05/23 01:50:13;;;;;;;;;;;13.80;99.90;;;;;;4976995;28;19922;-79
2022/05/23 01:52:38;;;;;;;;;;;13.80;99.90;;;;;;4976509;28;20423;-79
2022/05/23 01:55:04;;;;;;;;;;;13.90;99.90;;;;;;4975537;28;19941;-79
2022/05/23 01:57:31;;;;;;;;;;;13.90;99.90;;;;;;4981421;28;20012;-79
2022/05/23 02:02:44;;;;;;;;;;;13.90;99.90;;;;;;4979963;28;19925;-79
2022/05/23 02:05:10;;;;;;;;;;;13.90;99.90;;;;;;4957936;28;20386;-79
2022/05/23 02:07:36;;;;;;;;;;;13.90;99.90;;;;;;4981213;28;20003;-79
2022/05/23 02:10:02;;;;;;;;;;;13.80;99.90;;;;;;4979856;28;20291;-79
2022/05/23 02:12:28;;;;;;;;;;;13.90;99.90;;;;;;4976559;28;19929;-79
2022/05/23 02:14:53;;;;;;;;;;;13.80;99.90;;;;;;4958382;28;20662;-79
2022/05/23 02:17:37;;;;;;;;;;;13.80;99.90;;;;;;4977915;28;19925;-79
2022/05/23 02:20:04;;;;;;;;;;;13.90;99.90;;;;;;4981021;28;19972;-80
2022/05/23 02:22:30;;;;;;;;;;;13.80;99.90;;;;;;4973893;28;19932;-80
2022/05/23 02:24:56;;;;;;;;;;;13.80;99.90;;;;;;4965475;28;19929;-79
2022/05/23 02:27:22;;;;;;;;;;;13.80;99.90;;;;;;4996643;28;19987;-80
2022/05/23 02:29:47;;;;;;;;;;;13.70;99.90;;;;;;4972003;28;19929;-80
2022/05/23 02:32:14;;;;;;;;;;;13.80;99.90;;;;;;4958171;28;19925;-80
2022/05/23 02:34:41;;;;;;;;;;;13.70;99.90;;;;;;4979523;28;19948;-80
2022/05/23 02:37:06;;;;;;;;;;;13.80;99.90;;;;;;4995495;28;20035;-80
2022/05/23 02:39:32;;;;;;;;;;;13.70;99.90;;;;;;4979253;28;20376;-80
2022/05/23 02:41:58;;;;;;;;;;;13.70;99.90;;;;;;4995218;28;20867;-80
2022/05/23 02:44:23;;;;;;;;;;;13.70;99.90;;;;;;4982615;28;20015;-80
2022/05/23 02:46:49;;;;;;;;;;;13.60;99.90;;;;;;4971039;28;19941;-80
2022/05/23 02:49:15;;;;;;;;;;;13.70;99.90;;;;;;4971853;28;20004;-80
2022/05/23 02:51:41;;;;;;;;;;;13.70;99.90;;;;;;4976479;28;20375;-80
2022/05/23 02:54:07;;;;;;;;;;;13.60;99.90;;;;;;4957904;28;19933;-79
2022/05/23 02:56:34;;;;;;;;;;;13.60;99.90;;;;;;4979212;28;19932;-80
2022/05/23 02:59:00;;;;;;;;;;;13.70;99.90;;;;;;4976497;28;19933;-80
2022/05/23 03:01:25;;;;;;;;;;;13.70;99.90;;;;;;4979797;28;19930;-80
2022/05/23 03:03:51;;;;;;;;;;;13.60;99.90;;;;;;4982060;28;19925;-80
2022/05/23 03:06:17;;;;;;;;;;;13.70;99.90;;;;;;4975522;28;19925;-80
2022/05/23 03:08:43;;;;;;;;;;;13.70;99.90;;;;;;4973782;28;20043;-80
2022/05/23 03:11:09;;;;;;;;;;;13.70;99.90;;;;;;4970459;28;20776;-80
2022/05/23 03:13:35;;;;;;;;;;;13.70;99.90;;;;;;4973383;28;19973;-80
2022/05/23 03:16:01;;;;;;;;;;;13.70;99.90;;;;;;4980348;28;19925;-80
2022/05/23 03:18:28;;;;;;;;;;;13.70;99.90;;;;;;4959882;28;19925;-80
2022/05/23 03:20:55;;;;;;;;;;;13.70;99.90;;;;;;4979401;28;20477;-80
2022/05/23 03:28:49;;;;;;;;;;;13.60;99.90;;;;;;4995515;28;20655;-80
2022/05/23 03:31:16;;;;;;;;;;;13.60;99.90;;;;;;4992944;28;19935;-80
2022/05/23 03:33:41;;;;;;;;;;;13.60;99.90;;;;;;4996814;28;20008;-79
2022/05/23 03:36:08;;;;;;;;;;;13.60;99.90;;;;;;4997574;28;19925;-79
2022/05/23 03:38:35;;;;;;;;;;;13.60;99.90;;;;;;4995267;28;20322;-79
2022/05/23 03:41:08;;;;;;;;;;;13.60;99.90;;;;;;4997720;28;19924;-81
2022/05/23 03:43:34;;;;;;;;;;;13.60;99.90;;;;;;4993461;28;19925;-79
2022/05/23 03:46:03;;;;;;;;;;;13.60;99.90;;;;;;4997208;28;19932;-81
2022/05/23 03:48:29;;;;;;;;;;;13.60;99.90;;;;;;5000296;28;19925;-80
2022/05/23 03:50:55;;;;;;;;;;;13.60;99.90;;;;;;4979008;28;20451;-79
2022/05/23 03:53:21;;;;;;;;;;;13.60;99.90;;;;;;5000343;28;19925;-80
2022/05/23 03:55:49;;;;;;;;;;;13.70;99.90;;;;;;4996637;28;19921;-81
2022/05/23 03:58:15;;;;;;;;;;;13.70;99.90;;;;;;4994843;28;19994;-80
2022/05/23 04:00:43;;;;;;;;;;;13.70;99.90;;;;;;4983032;28;19928;-80
2022/05/23 04:03:09;;;;;;;;;;;13.60;99.90;;;;;;4998839;28;20022;-79
2022/05/23 04:05:35;;;;;;;;;;;13.70;99.90;;;;;;4998342;28;20035;-81
2022/05/23 04:08:00;;;;;;;;;;;13.70;99.90;;;;;;4980803;28;19925;-79
2022/05/23 04:10:26;;;;;;;;;;;13.70;99.90;;;;;;5004868;28;19968;-79
2022/05/23 04:12:52;;;;;;;;;;;13.70;99.90;;;;;;4998061;28;19960;-79
2022/05/23 04:15:18;;;;;;;;;;;13.70;99.90;;;;;;4989199;28;20702;-80
2022/05/23 04:17:44;;;;;;;;;;;13.70;99.90;;;;;;4972099;28;19930;-80
2022/05/23 04:20:10;;;;;;;;;;;13.70;99.90;;;;;;4993888;28;20509;-80
2022/05/23 04:22:36;;;;;;;;;;;13.70;99.90;;;;;;5001599;28;19975;-80
2022/05/23 04:25:03;;;;;;;;;;;13.70;99.90;;;;;;4992759;28;19925;-80
2022/05/23 04:27:29;;;;;;;;;;;13.70;99.90;;;;;;5004217;28;19964;-80
2022/05/23 04:29:54;;;;;;;;;;;13.80;99.90;;;;;;5000062;28;20047;-79
2022/05/23 04:35:13;;;;;;;;;;;13.80;99.90;;;;;;5003546;28;19968;-80
2022/05/23 04:37:40;;;;;;;;;;;13.90;99.90;;;;;;5002117;28;19926;-80
2022/05/23 04:40:06;;;;;;;;;;;14.00;99.90;;;;;;4999252;28;19931;-80
2022/05/23 04:42:31;;;;;;;;;;;14.00;99.90;;;;;;5001095;28;19921;-81
2022/05/23 04:44:57;;;;;;;;;;;14.00;99.90;;;;;;5002003;28;19925;-80
2022/05/23 04:50:07;;;;;;;;;;;14.10;99.90;;;;;;4998744;28;20586;-80
2022/05/23 04:52:33;;;;;;;;;;;14.10;99.90;;;;;;4999885;28;19972;-80
2022/05/23 04:54:58;;;;;;;;;;;14.20;99.90;;;;;;5000193;28;19932;-81
2022/05/23 04:57:24;;;;;;;;;;;14.30;99.90;;;;;;4998680;28;19936;-80
2022/05/23 04:59:50;;;;;;;;;;;14.50;99.90;;;;;;4995430;28;19935;-81
2022/05/23 05:02:15;;;;;;;;;;;14.50;99.90;;;;;;4981118;28;19936;-80
2022/05/23 05:04:41;;;;;;;;;;;14.40;99.90;;;;;;4987251;28;19925;-79
2022/05/23 05:07:07;;;;;;;;;;;14.40;99.90;;;;;;4986004;28;20390;-79
2022/05/23 05:09:33;;;;;;;;;;;14.40;99.90;;;;;;4988335;28;20379;-79
2022/05/23 05:11:59;;;;;;;;;;;14.40;99.90;;;;;;4985424;28;19925;-81
2022/05/23 05:14:26;;;;;;;;;;;14.50;99.90;;;;;;4985272;28;19952;-81
2022/05/23 05:16:52;;;;;;;;;;;14.50;99.90;;;;;;4986259;28;20583;-79
2022/05/23 05:19:17;;;;;;;;;;;14.70;99.90;;;;;;4967761;28;19926;-81
2022/05/23 05:21:43;;;;;;;;;;;14.90;99.90;;;;;;4979863;28;20009;-80
2022/05/23 05:24:09;;;;;;;;;;;15.00;99.90;;;;;;4990367;28;20053;-79
2022/05/23 05:26:35;;;;;;;;;;;15.70;99.90;;;;;;4960025;28;20630;-80
2022/05/23 05:29:00;;;;;;;;;;;16.00;99.90;;;;;;4963657;28;19984;-80
2022/05/23 05:31:29;;;;;;;;;;;16.80;99.90;;;;;;4948615;28;19926;-80
2022/05/23 05:34:00;;;;;;;;;;;17.00;99.90;;;;;;4967916;28;19932;-81
2022/05/23 05:36:30;;;;;;;;;;;17.80;99.90;;;;;;4969750;28;19968;-81
2022/05/23 05:38:59;;;;;;;;;;;17.50;99.90;;;;;;4963631;28;19930;-80
2022/05/23 05:41:27;;;;;;;;;;;18.10;99.90;;;;;;4968295;28;19929;-80
2022/05/23 05:44:04;;;;;;;;;;;17.60;99.90;;;;;;4965800;28;19930;-79
2022/05/23 05:46:49;;;;;;;;;;;17.60;99.90;;;;;;4962959;28;19925;-80
2022/05/23 05:49:19;;;;;;;;;;;17.10;99.90;;;;;;4958860;28;19930;-79
2022/05/23 05:51:45;;;;;;;;;;;16.70;99.90;;;;;;4968893;28;19934;-79
2022/05/23 05:54:13;;;;;;;;;;;17.10;99.90;;;;;;4964473;28;20066;-79
2022/05/23 05:56:39;;;;;;;;;;;16.70;99.90;;;;;;4946892;28;19937;-80
2022/05/23 05:59:06;;;;;;;;;;;16.80;99.90;;;;;;4959824;28;19929;-81
2022/05/23 06:01:31;;;;;;;;;;;17.30;99.90;;;;;;4966942;28;20004;-79
2022/05/23 06:03:57;;;;;;;;;;;16.80;99.90;;;;;;4971669;28;19932;-80
2022/05/23 06:11:51;;;;;;;;;;;16.40;99.90;;;;;;4976030;28;20472;-80
2022/05/23 06:14:17;;;;;;;;;;;16.60;99.90;;;;;;4977131;28;19925;-80
2022/05/23 06:16:43;;;;;;;;;;;16.60;99.90;;;;;;4978793;28;19979;-80
2022/05/23 06:19:08;;;;;;;;;;;17.00;99.90;;;;;;4981842;28;19948;-79
2022/05/23 06:21:34;;;;;;;;;;;16.50;99.90;;;;;;4962503;28;20749;-81
2022/05/23 06:24:00;;;;;;;;;;;16.40;99.90;;;;;;4972770;28;19925;-78
2022/05/23 06:26:26;;;;;;;;;;;16.40;99.90;;;;;;4990011;28;20397;-78
2022/05/23 06:28:52;;;;;;;;;;;16.50;99.90;;;;;;4996675;28;19972;-79
2022/05/23 06:31:18;;;;;;;;;;;16.80;99.90;;;;;;4996043;28;20033;-80
2022/05/23 06:33:44;;;;;;;;;;;17.00;99.90;;;;;;4990223;28;19964;-81
2022/05/23 06:36:11;;;;;;;;;;;17.10;99.90;;;;;;4971044;28;20012;-78
2022/05/23 06:38:37;;;;;;;;;;;17.20;99.90;;;;;;4989324;28;20367;-80
2022/05/23 06:41:03;;;;;;;;;;;17.70;99.90;;;;;;4963233;28;20440;-79
2022/05/23 06:43:29;;;;;;;;;;;17.60;99.90;;;;;;4964511;28;20008;-79
2022/05/23 06:45:55;;;;;;;;;;;18.20;99.90;;;;;;4985762;28;19960;-80
2022/05/23 06:48:22;;;;;;;;;;;18.10;99.90;;;;;;4981112;28;20004;-79
2022/05/23 06:50:50;;;;;;;;;;;18.00;99.90;;;;;;4978418;28;20282;-80
2022/05/23 06:53:22;;;;;;;;;;;18.10;99.90;;;;;;4979755;28;20810;-80
2022/05/23 06:55:48;;;;;;;;;;;18.20;99.90;;;;;;4966703;28;19925;-79
2022/05/23 06:58:14;;;;;;;;;;;18.00;99.90;;;;;;4981609;28;20383;-79
2022/05/23 07:00:40;;;;;;;;;;;18.30;99.90;;;;;;4963968;28;19932;-79
2022/05/23 07:03:06;;;;;;;;;;;18.80;99.90;;;;;;4985833;28;19978;-79
2022/05/23 07:13:45;;;;;;;;;;;18.90;99.90;;;;;;4983922;28;19925;-79
2022/05/23 07:16:11;;;;;;;;;;;18.60;99.90;;;;;;4953155;28;19926;-79
2022/05/23 07:18:38;;;;;;;;;;;18.60;99.90;;;;;;4989191;28;19925;-80
2022/05/23 07:21:07;;;;;;;;;;;18.50;99.90;;;;;;4969625;28;19948;-80
2022/05/23 07:23:36;;;;;;;;;;;18.50;99.90;;;;;;4986314;28;19925;-79
2022/05/23 07:26:02;;;;;;;;;;;18.70;99.90;;;;;;4982801;28;19925;-80
2022/05/23 07:28:28;;;;;;;;;;;18.90;99.90;;;;;;4983283;28;19964;-78
2022/05/23 07:30:54;;;;;;;;;;;18.80;99.90;;;;;;4986979;28;20047;-79
2022/05/23 07:33:20;;;;;;;;;;;19.00;99.90;;;;;;4974084;28;19932;-78
2022/05/23 07:35:55;;;;;;;;;;;19.20;99.90;;;;;;4984925;28;19932;-79
2022/05/23 07:38:20;;;;;;;;;;;19.30;99.90;;;;;;4974806;28;19932;-80
2022/05/23 07:40:53;;;;;;;;;;;19.60;99.90;;;;;;4981820;28;20170;-80
2022/05/23 07:43:18;;;;;;;;;;;19.60;99.90;;;;;;4969487;28;20228;-79
2022/05/23 07:45:45;;;;;;;;;;;19.80;99.90;;;;;;4966236;28;20310;-79
2022/05/23 07:48:10;;;;;;;;;;;19.90;99.90;;;;;;4987483;28;19929;-78
2022/05/23 07:50:37;;;;;;;;;;;19.80;99.90;;;;;;4988592;28;19991;-79
2022/05/23 08:01:15;;;;;;;;;;;20.40;99.90;;;;;;4965165;28;19949;-79
2022/05/23 08:03:41;;;;;;;;;;;20.70;99.90;;;;;;4965072;28;20124;-80
2022/05/23 08:06:06;;;;;;;;;;;20.80;99.90;;;;;;4980241;28;19969;-80
2022/05/23 08:08:32;;;;;;;;;;;20.90;99.90;;;;;;4960512;28;20450;-80
2022/05/23 08:10:59;;;;;;;;;;;21.20;99.90;;;;;;4980328;28;19932;-78
2022/05/23 08:13:25;;;;;;;;;;;21.80;99.90;;;;;;4987110;28;20403;-81
2022/05/23 08:15:50;;;;;;;;;;;21.60;99.90;;;;;;4990286;28;20302;-81
2022/05/23 08:18:17;;;;;;;;;;;21.90;99.90;;;;;;4987340;28;20236;-79
2022/05/23 08:20:43;;;;;;;;;;;21.70;99.90;;;;;;4990831;28;20016;-78
2022/05/23 08:23:09;;;;;;;;;;;22.10;99.90;;;;;;4964065;28;20586;-78
2022/05/23 08:25:35;;;;;;;;;;;22.00;99.90;;;;;;4993552;28;19925;-79
2022/05/23 08:28:01;;;;;;;;;;;22.60;99.90;;;;;;4988968;28;20048;-78
2022/05/23 08:30:27;;;;;;;;;;;22.70;99.90;;;;;;4989203;28;19971;-79
2022/05/23 08:32:53;;;;;;;;;;;22.20;99.90;;;;;;4985859;28;19931;-79
2022/05/23 08:35:21;;;;;;;;;;;22.00;99.90;;;;;;4986104;28;19925;-78
2022/05/23 08:37:47;;;;;;;;;;;22.30;99.90;;;;;;4988114;28;19925;-78
2022/05/23 08:40:13;;;;;;;;;;;22.70;99.90;;;;;;4989457;28;19936;-78
2022/05/23 08:42:39;;;;;;;;;;;22.60;99.90;;;;;;4989250;28;19935;-79
2022/05/23 08:45:04;;;;;;;;;;;23.00;99.90;;;;;;4994153;28;19929;-78
2022/05/23 08:47:37;;;;;;;;;;;23.40;99.90;;;;;;4987815;28;19940;-80
2022/05/23 08:50:09;;;;;;;;;;;23.10;99.90;;;;;;4986388;28;19930;-80
2022/05/23 08:52:45;;;;;;;;;;;23.10;99.90;;;;;;4988240;28;19929;-79
2022/05/23 08:55:23;;;;;;;;;;;23.30;99.90;;;;;;4985290;28;19991;-79
2022/05/23 08:57:50;;;;;;;;;;;23.90;99.90;;;;;;4989788;28;20424;-78
2022/05/23 09:00:19;;;;;;;;;;;23.80;99.90;;;;;;4988720;28;20427;-80
2022/05/23 09:02:45;;;;;;;;;;;24.10;99.90;;;;;;4970511;28;20432;-76
2022/05/23 09:05:32;;;;;;;;;;;24.40;99.90;;;;;;4967044;28;19925;-77
2022/05/23 09:07:59;;;;;;;;;;;24.20;99.90;;;;;;4986643;28;19929;-80
2022/05/23 09:10:55;;;;;;;;;;;24.80;99.90;;;;;;4989260;28;20012;-80
2022/05/23 09:13:22;;;;;;;;;;;24.80;99.90;;;;;;4924721;28;20659;-80
2022/05/23 09:15:49;;;;;;;;;;;23.70;99.90;;;;;;4969598;28;19924;-78
2022/05/23 09:18:17;;;;;;;;;;;23.20;99.20;;;;;;4988868;28;19940;-78
2022/05/23 09:20:49;;;;;;;;;;;23.10;99.90;;;;;;4974689;28;19932;-79
2022/05/23 09:23:24;;;;;;;;;;;22.90;99.90;;;;;;4990916;28;19930;-79
2022/05/23 09:25:51;;;;;;;;;;;23.70;99.90;;;;;;4992591;28;19932;-79
2022/05/23 09:28:37;;;;;;;;;;;23.50;99.90;;;;;;4970853;28;21025;-80
2022/05/23 09:31:41;;;;;;;;;;;23.30;99.90;;;;;;4987929;28;19925;-79
2022/05/23 09:34:26;;;;;;;;;;;23.40;99.90;;;;;;4946164;28;20182;-79
2022/05/23 09:36:52;;;;;;;;;;;23.30;99.90;;;;;;4943214;28;19950;-78
2022/05/23 09:39:21;;;;;;;;;;;23.60;99.90;;;;;;4969486;28;19971;-79
2022/05/23 09:47:45;;;;;;;;;;;23.80;99.90;;;;;;4986919;28;19929;-80
2022/05/23 09:50:12;;;;;;;;;;;24.10;99.90;;;;;;4986058;28;19964;-79
2022/05/23 09:52:48;;;;;;;;;;;23.90;99.90;;;;;;4984017;28;20010;-80
2022/05/23 09:55:23;;;;;;;;;;;23.80;99.90;;;;;;4984795;28;20433;-79
2022/05/23 09:57:51;;;;;;;;;;;23.90;99.90;;;;;;4986050;28;20477;-79
2022/05/23 10:00:22;;;;;;;;;;;23.90;99.90;;;;;;4988024;28;20879;-80
2022/05/23 10:02:52;;;;;;;;;;;23.50;99.90;;;;;;4983220;28;20722;-80
2022/05/23 10:05:46;;;;;;;;;;;23.50;99.70;;;;;;4987009;28;19925;-80
2022/05/23 10:08:13;;;;;;;;;;;24.60;99.90;;;;;;4942865;28;19936;-79
2022/05/23 10:10:51;;;;;;;;;;;23.60;99.10;;;;;;4985345;28;19925;-78
2022/05/23 10:13:25;;;;;;;;;;;24.10;99.90;;;;;;4985532;28;20293;-77
2022/05/23 10:15:53;;;;;;;;;;;24.40;99.90;;;;;;4986365;28;19932;-79
2022/05/23 10:18:30;;;;;;;;;;;24.00;99.90;;;;;;4983541;28;19933;-79
2022/05/23 10:20:56;;;;;;;;;;;24.40;98.60;;;;;;4982197;28;19979;-79
2022/05/23 10:23:29;;;;;;;;;;;24.50;99.90;;;;;;4983020;28;20812;-78
2022/05/23 10:26:01;;;;;;;;;;;24.40;96.40;;;;;;4989624;28;20286;-79
2022/05/23 10:28:50;;;;;;;;;;;24.50;99.90;;;;;;4983516;28;19925;-80
2022/05/23 10:31:26;;;;;;;;;;;24.50;98.60;;;;;;4961057;28;20373;-78
2022/05/23 10:34:04;;;;;;;;;;;24.60;98.50;;;;;;4983048;28;19987;-78
2022/05/23 10:36:30;;;;;;;;;;;25.00;98.70;;;;;;4981182;28;19925;-80
2022/05/23 10:42:11;;;;;;;;;;;25.40;99.90;;;;;;4958129;28;19929;-79
2022/05/23 10:44:36;;;;;;;;;;;24.50;98.80;;;;;;4968462;28;19976;-78
2022/05/23 10:47:06;;;;;;;;;;;25.40;99.00;;;;;;4973808;28;20032;-80
2022/05/23 10:49:40;;;;;;;;;;;25.60;98.50;;;;;;4964403;28;19925;-77
2022/05/23 10:52:10;;;;;;;;;;;25.80;99.90;;;;;;4974627;28;19971;-80
2022/05/23 10:54:41;;;;;;;;;;;24.90;97.30;;;;;;4943255;28;19925;-80
2022/05/23 10:57:10;;;;;;;;;;;25.20;99.90;;;;;;4964934;28;20015;-78
2022/05/23 10:59:51;;;;;;;;;;;24.80;97.30;;;;;;4965260;28;20568;-79
2022/05/23 11:02:32;;;;;;;;;;;25.10;96.50;;;;;;4966457;28;20135;-77
2022/05/23 11:05:13;;;;;;;;;;;25.60;99.00;;;;;;4963200;28;19936;-79
2022/05/23 11:07:42;;;;;;;;;;;25.40;99.10;;;;;;4946899;28;19925;-77
2022/05/23 11:10:14;;;;;;;;;;;25.80;99.90;;;;;;4963576;28;19928;-76
2022/05/23 11:13:03;;;;;;;;;;;26.10;99.90;;;;;;4968562;28;20529;-78
2022/05/23 11:15:36;;;;;;;;;;;26.10;99.90;;;;;;4959108;28;19960;-77
2022/05/23 11:18:08;;;;;;;;;;;26.00;99.90;;;;;;4979634;28;19925;-75
2022/05/23 11:20:35;;;;;;;;;;;26.50;99.90;;;;;;4998674;28;19979;-79
2022/05/23 11:23:18;;;;;;;;;;;25.70;94.60;;;;;;4997867;28;19932;-77
2022/05/23 11:25:45;;;;;;;;;;;25.60;97.00;;;;;;4974851;28;19925;-77
2022/05/23 11:34:09;;;;;;;;;;;25.30;96.90;;;;;;4990985;28;19926;-78
2022/05/23 11:39:49;;;;;;;;;;;26.00;95.80;;;;;;4950168;28;20257;-79
2022/05/23 11:42:35;;;;;;;;;;;25.90;95.30;;;;;;4987474;28;19936;-77
2022/05/23 11:47:52;;;;;;;;;;;25.90;97.20;;;;;;4990168;28;20412;-77
2022/05/23 11:50:29;;;;;;;;;;;26.10;99.90;;;;;;4972381;28;19925;-78
2022/05/23 11:53:02;;;;;;;;;;;25.70;97.10;;;;;;4990508;28;19929;-77
2022/05/23 11:55:46;;;;;;;;;;;25.90;98.60;;;;;;4997028;28;20354;-78
2022/05/23 11:58:22;;;;;;;;;;;26.40;96.00;;;;;;4996404;28;19970;-78
2022/05/23 12:01:02;;;;;;;;;;;26.50;96.00;;;;;;4966488;28;19925;-78
2022/05/23 12:03:49;;;;;;;;;;;26.20;97.90;;;;;;4965904;28;19968;-77
2022/05/23 12:06:24;;;;;;;;;;;25.90;99.60;;;;;;4969277;28;19929;-79
2022/05/23 12:09:09;;;;;;;;;;;25.20;95.90;;;;;;4990049;28;19932;-77
2022/05/23 12:11:39;;;;;;;;;;;25.10;98.40;;;;;;4989742;28;19936;-78
2022/05/23 12:14:24;;;;;;;;;;;25.30;98.80;;;;;;4988624;28;20461;-80
2022/05/23 12:16:49;;;;;;;;;;;25.80;98.30;;;;;;4985622;28;19925;-78
2022/05/23 12:19:21;;;;;;;;;;;25.90;98.90;;;;;;4986114;28;19929;-77
2022/05/23 12:21:47;;;;;;;;;;;26.00;99.90;;;;;;4987276;28;19925;-78
2022/05/23 12:24:28;;;;;;;;;;;25.90;99.40;;;;;;4969323;28;20476;-77
2022/05/23 12:26:55;;;;;;;;;;;25.40;98.90;;;;;;4982941;28;19925;-77
2022/05/23 12:29:24;;;;;;;;;;;25.00;98.40;;;;;;4984469;28;19948;-78
2022/05/23 12:32:08;;;;;;;;;;;24.30;99.40;;;;;;4968217;28;19925;-78
2022/05/23 12:34:39;;;;;;;;;;;24.50;99.90;;;;;;4987437;28;19964;-80
2022/05/23 12:37:04;;;;;;;;;;;24.70;99.90;;;;;;4987272;28;19936;-78
2022/05/23 12:39:42;;;;;;;;;;;24.70;99.90;;;;;;4970888;28;19925;-78
2022/05/23 12:42:20;;;;;;;;;;;24.90;99.90;;;;;;4993517;28;20386;-77
2022/05/23 12:45:06;;;;;;;;;;;24.50;99.90;;;;;;4971285;28;20163;-78
2022/05/23 12:47:32;;;;;;;;;;;24.40;99.90;;;;;;4992826;28;20180;-79
2022/05/23 12:50:05;;;;;;;;;;;24.60;99.90;;;;;;4994477;28;20039;-78
2022/05/23 12:52:31;;;;;;;;;;;24.40;99.90;;;;;;4952642;28;20014;-79
2022/05/23 12:55:03;;;;;;;;;;;24.60;99.90;;;;;;4997657;28;20548;-77
2022/05/23 12:57:46;;;;;;;;;;;24.40;99.90;;;;;;4993359;28;20517;-80
2022/05/23 13:00:14;;;;;;;;;;;24.40;99.90;;;;;;4994806;28;19925;-79
2022/05/23 13:02:42;;;;;;;;;;;24.50;99.90;;;;;;4998000;28;19930;-79
2022/05/23 13:05:08;;;;;;;;;;;24.30;99.90;;;;;;5000171;28;20387;-78
2022/05/23 13:07:37;;;;;;;;;;;24.30;99.90;;;;;;4967290;28;20756;-78
2022/05/23 13:10:05;;;;;;;;;;;24.20;99.90;;;;;;4992172;28;19929;-77
2022/05/23 13:12:50;;;;;;;;;;;24.20;99.90;;;;;;4971074;28;19925;-80
2022/05/23 13:15:27;;;;;;;;;;;23.80;99.90;;;;;;4995504;28;19933;-76
2022/05/23 13:17:53;;;;;;;;;;;24.10;99.90;;;;;;4995275;28;19929;-79
2022/05/23 13:23:10;;;;;;;;;;;24.00;99.90;;;;;;4994849;28;19932;-78
2022/05/23 13:25:37;;;;;;;;;;;24.00;99.90;;;;;;4998316;28;19925;-80
2022/05/23 13:28:06;;;;;;;;;;;24.00;99.90;;;;;;4971040;28;19929;-79
2022/05/23 13:30:35;;;;;;;;;;;23.80;99.90;;;;;;4992119;28;19929;-78
2022/05/23 13:33:14;;;;;;;;;;;23.80;99.90;;;;;;4976801;28;19925;-79
2022/05/23 13:35:41;;;;;;;;;;;23.60;99.90;;;;;;4998973;28;19925;-79
2022/05/23 13:38:13;;;;;;;;;;;23.60;99.90;;;;;;4993688;28;19933;-78
2022/05/23 13:40:42;;;;;;;;;;;23.50;99.90;;;;;;5000897;28;19925;-79
2022/05/23 13:43:12;;;;;;;;;;;23.70;99.90;;;;;;4990052;28;19925;-79
2022/05/23 13:45:39;;;;;;;;;;;23.90;99.90;;;;;;4991335;28;20056;-77
2022/05/23 13:48:08;;;;;;;;;;;23.70;99.90;;;;;;4996862;28;19975;-79
2022/05/23 13:50:42;;;;;;;;;;;23.90;99.90;;;;;;4999885;28;19935;-78
2022/05/23 13:53:13;;;;;;;;;;;24.10;99.90;;;;;;5001549;28;20723;-78
2022/05/23 13:55:45;;;;;;;;;;;24.10;99.90;;;;;;4993450;28;19925;-78
2022/05/23 13:58:21;;;;;;;;;;;24.10;99.90;;;;;;4995229;28;19925;-79
2022/05/23 14:00:50;;;;;;;;;;;24.10;99.90;;;;;;4992787;28;19976;-78
2022/05/23 14:03:33;;;;;;;;;;;24.00;99.90;;;;;;4970305;28;19937;-79
2022/05/23 14:05:59;;;;;;;;;;;24.00;99.90;;;;;;4999011;28;19925;-78
2022/05/23 14:08:33;;;;;;;;;;;24.00;99.90;;;;;;4979083;28;19933;-78
2022/05/23 14:11:17;;;;;;;;;;;24.00;99.90;;;;;;4996691;28;19925;-78
2022/05/23 14:13:44;;;;;;;;;;;23.90;99.90;;;;;;4991826;28;20444;-77
2022/05/23 14:16:14;;;;;;;;;;;23.80;99.90;;;;;;4980898;28;19932;-77
2022/05/23 14:18:39;;;;;;;;;;;23.80;99.90;;;;;;4994436;28;19975;-78
2022/05/23 14:21:05;;;;;;;;;;;23.70;99.90;;;;;;4967809;28;19925;-78
2022/05/23 14:23:32;;;;;;;;;;;23.60;99.90;;;;;;4984337;28;19925;-78
2022/05/23 14:25:58;;;;;;;;;;;23.50;99.90;;;;;;4993479;28;19948;-78
2022/05/23 14:28:27;;;;;;;;;;;23.60;99.90;;;;;;4973507;28;20390;-78
2022/05/23 14:31:03;;;;;;;;;;;23.40;99.90;;;;;;4990487;28;19926;-77
2022/05/23 14:33:29;;;;;;;;;;;23.50;99.90;;;;;;4950876;28;20391;-77
2022/05/23 14:35:56;;;;;;;;;;;23.40;99.90;;;;;;4991656;28;19932;-78
2022/05/23 14:38:35;;;;;;;;;;;23.30;99.90;;;;;;4999415;28;20016;-76
2022/05/23 14:41:20;;;;;;;;;;;23.30;99.90;;;;;;4970149;28;19932;-79
2022/05/23 14:43:46;;;;;;;;;;;23.30;99.90;;;;;;4980431;28;19960;-78
2022/05/23 14:46:16;;;;;;;;;;;23.30;99.90;;;;;;4987001;28;20043;-78
2022/05/23 14:48:51;;;;;;;;;;;23.30;99.90;;;;;;4969035;28;19988;-77
2022/05/23 14:51:24;;;;;;;;;;;23.30;99.90;;;;;;4985657;28;19925;-78
2022/05/23 14:56:43;;;;;;;;;;;23.40;99.90;;;;;;4992526;28;19932;-78
2022/05/23 15:01:59;;;;;;;;;;;23.40;99.90;;;;;;4988962;28;20630;-79
2022/05/23 15:04:26;;;;;;;;;;;23.30;99.90;;;;;;4990277;28;19930;-77
2022/05/23 15:06:54;;;;;;;;;;;23.20;99.90;;;;;;4984989;28;19924;-78
2022/05/23 15:09:20;;;;;;;;;;;23.40;99.90;;;;;;4985976;28;19935;-77
2022/05/23 15:11:46;;;;;;;;;;;23.20;99.90;;;;;;4961765;28;19929;-79
2022/05/23 15:14:13;;;;;;;;;;;23.40;99.90;;;;;;4978990;28;19944;-79
2022/05/23 15:16:38;;;;;;;;;;;23.40;99.90;;;;;;4990770;28;19925;-79
2022/05/23 15:19:05;;;;;;;;;;;23.60;99.90;;;;;;4987781;28;19936;-77
2022/05/23 15:21:31;;;;;;;;;;;23.60;99.90;;;;;;4982688;28;19933;-79
2022/05/23 15:23:56;;;;;;;;;;;23.70;99.90;;;;;;4984016;28;20390;-79
2022/05/23 15:26:24;;;;;;;;;;;23.70;99.90;;;;;;4985824;28;20354;-77
2022/05/23 15:28:50;;;;;;;;;;;23.80;99.90;;;;;;4967075;28;20346;-77
2022/05/23 15:31:17;;;;;;;;;;;23.90;99.90;;;;;;4991071;28;20745;-77
2022/05/23 15:33:43;;;;;;;;;;;23.80;99.90;;;;;;4997293;28;19952;-77
2022/05/23 15:36:09;;;;;;;;;;;23.80;99.90;;;;;;4997772;28;20712;-76
2022/05/23 15:38:34;;;;;;;;;;;23.80;99.90;;;;;;4990054;28;19936;-76